sensor_id;sensor_type;location;lat;lon;timestamp;temperature;humidity
19522;DHT22;9905;52.126;5.596;2023-05-10T00:01:59;13.60;99.90
19522;DHT22;9905;52.126;5.596;2023-05-10T00:04:26;13.60;99.90
19522;DHT22;9905;52.126;5.596;2023-05-10T00:06:53;13.60;99.90
19522;DHT22;9905;52.126;5.596;2023-05-10T00:09:21;13.60;99.90
19522;DHT22;9905;52.126;5.596;2023-05-10T00:11:48;13.60;99.90
19522;DHT22;9905;52.126;5.596;2023-05-10T00:14:15;13.60;99.90
19522;DHT22;9905;52.126;5.596;2023-05-10T00:16:42;13.50;99.90
19522;DHT22;9905;52.126;5.596;2023-05-10T00:19:08;13.60;99.90
19522;DHT22;9905;52.126;5.596;2023-05-10T00:21:35;13.50;99.90
19522;DHT22;9905;52.126;5.596;2023-05-10T00:24:03;13.60;99.90
19522;DHT22;9905;52.126;5.596;2023-05-10T00:26:32;13.50;99.90
19522;DHT22;9905;52.126;5.596;2023-05-10T00:28:58;13.50;99.90
19522;DHT22;9905;52.126;5.596;2023-05-10T00:31:25;13.50;99.90
19522;DHT22;9905;52.126;5.596;2023-05-10T00:33:53;13.50;99.90
19522;DHT22;9905;52.126;5.596;2023-05-10T00:36:20;13.50;99.90
19522;DHT22;9905;52.126;5.596;2023-05-10T00:38:47;13.50;99.90
19522;DHT22;9905;52.126;5.596;2023-05-10T00:41:13;13.50;99.90
19522;DHT22;9905;52.126;5.596;2023-05-10T00:43:42;13.50;99.90
19522;DHT22;9905;52.126;5.596;2023-05-10T00:46:09;13.50;99.90
19522;DHT22;9905;52.126;5.596;2023-05-10T00:48:36;13.40;99.90
19522;DHT22;9905;52.126;5.596;2023-05-10T00:51:03;13.50;99.90
19522;DHT22;9905;52.126;5.596;2023-05-10T00:53:31;13.50;99.90
19522;DHT22;9905;52.126;5.596;2023-05-10T00:55:58;13.50;99.90
19522;DHT22;9905;52.126;5.596;2023-05-10T00:58:25;13.40;99.90
19522;DHT22;9905;52.126;5.596;2023-05-10T01:00:55;13.50;99.90
19522;DHT22;9905;52.126;5.596;2023-05-10T01:03:22;13.40;99.90
19522;DHT22;9905;52.126;5.596;2023-05-10T01:05:50;13.40;99.90
19522;DHT22;9905;52.126;5.596;2023-05-10T01:08:17;13.40;99.90
19522;DHT22;9905;52.126;5.596;2023-05-10T01:10:44;13.40;99.90
19522;DHT22;9905;52.126;5.596;2023-05-10T01:13:12;13.40;99.90
19522;DHT22;9905;52.126;5.596;2023-05-10T01:15:40;13.40;99.90
19522;DHT22;9905;52.126;5.596;2023-05-10T01:18:08;13.50;99.90
19522;DHT22;9905;52.126;5.596;2023-05-10T01:20:41;13.50;99.90
19522;DHT22;9905;52.126;5.596;2023-05-10T01:23:35;13.50;99.90
19522;DHT22;9905;52.126;5.596;2023-05-10T01:26:24;13.50;99.90
19522;DHT22;9905;52.126;5.596;2023-05-10T01:32:25;13.40;99.90
19522;DHT22;9905;52.126;5.596;2023-05-10T01:34:59;13.50;99.90
19522;DHT22;9905;52.126;5.596;2023-05-10T01:37:33;13.40;99.90
19522;DHT22;9905;52.126;5.596;2023-05-10T01:40:08;13.40;99.90
19522;DHT22;9905;52.126;5.596;2023-05-10T01:42:39;13.40;99.90
19522;DHT22;9905;52.126;5.596;2023-05-10T01:45:14;13.40;99.90
19522;DHT22;9905;52.126;5.596;2023-05-10T01:47:46;13.50;99.90
19522;DHT22;9905;52.126;5.596;2023-05-10T01:50:17;13.50;99.90
19522;DHT22;9905;52.126;5.596;2023-05-10T01:52:53;13.40;99.90
19522;DHT22;9905;52.126;5.596;2023-05-10T01:55:23;13.40;99.90
19522;DHT22;9905;52.126;5.596;2023-05-10T01:57:56;13.40;99.90
19522;DHT22;9905;52.126;5.596;2023-05-10T02:00:24;13.40;99.90
19522;DHT22;9905;52.126;5.596;2023-05-10T02:02:52;13.40;99.90
19522;DHT22;9905;52.126;5.596;2023-05-10T02:05:21;13.40;99.90
19522;DHT22;9905;52.126;5.596;2023-05-10T02:07:49;13.40;99.90
19522;DHT22;9905;52.126;5.596;2023-05-10T02:10:17;13.40;99.90
19522;DHT22;9905;52.126;5.596;2023-05-10T02:12:47;13.40;99.90
19522;DHT22;9905;52.126;5.596;2023-05-10T02:15:18;13.40;99.90
19522;DHT22;9905;52.126;5.596;2023-05-10T02:17:46;13.40;99.90
19522;DHT22;9905;52.126;5.596;2023-05-10T02:20:16;13.40;99.90
19522;DHT22;9905;52.126;5.596;2023-05-10T02:22:45;13.50;99.90
19522;DHT22;9905;52.126;5.596;2023-05-10T02:25:13;13.40;99.90
19522;DHT22;9905;52.126;5.596;2023-05-10T02:27:41;13.40;99.90
19522;DHT22;9905;52.126;5.596;2023-05-10T02:30:10;13.40;99.90
19522;DHT22;9905;52.126;5.596;2023-05-10T02:32:38;13.40;99.90
19522;DHT22;9905;52.126;5.596;2023-05-10T02:35:06;13.40;99.90
19522;DHT22;9905;52.126;5.596;2023-05-10T02:37:35;13.40;99.90
19522;DHT22;9905;52.126;5.596;2023-05-10T02:40:04;13.40;99.90
19522;DHT22;9905;52.126;5.596;2023-05-10T02:42:35;13.40;99.90
19522;DHT22;9905;52.126;5.596;2023-05-10T02:45:05;13.40;99.90
19522;DHT22;9905;52.126;5.596;2023-05-10T02:47:34;13.40;99.90
19522;DHT22;9905;52.126;5.596;2023-05-10T02:50:01;13.40;99.90
19522;DHT22;9905;52.126;5.596;2023-05-10T02:52:30;13.40;99.90
19522;DHT22;9905;52.126;5.596;2023-05-10T02:55:05;13.40;99.90
19522;DHT22;9905;52.126;5.596;2023-05-10T02:57:34;13.40;99.90
19522;DHT22;9905;52.126;5.596;2023-05-10T03:00:02;13.40;99.90
19522;DHT22;9905;52.126;5.596;2023-05-10T03:02:29;13.40;99.90
19522;DHT22;9905;52.126;5.596;2023-05-10T03:04:56;13.30;99.90
19522;DHT22;9905;52.126;5.596;2023-05-10T03:07:23;13.30;99.90
19522;DHT22;9905;52.126;5.596;2023-05-10T03:09:51;13.30;99.90
19522;DHT22;9905;52.126;5.596;2023-05-10T03:12:26;13.30;99.90
19522;DHT22;9905;52.126;5.596;2023-05-10T03:15:03;13.30;99.90
19522;DHT22;9905;52.126;5.596;2023-05-10T03:17:41;13.30;99.90
19522;DHT22;9905;52.126;5.596;2023-05-10T03:20:11;13.30;99.90
19522;DHT22;9905;52.126;5.596;2023-05-10T03:22:44;13.30;99.90
19522;DHT22;9905;52.126;5.596;2023-05-10T03:25:12;13.20;99.90
19522;DHT22;9905;52.126;5.596;2023-05-10T03:27:43;13.20;99.90
19522;DHT22;9905;52.126;5.596;2023-05-10T03:30:12;13.20;99.90
19522;DHT22;9905;52.126;5.596;2023-05-10T03:32:39;13.20;99.90
19522;DHT22;9905;52.126;5.596;2023-05-10T03:35:07;13.20;99.90
19522;DHT22;9905;52.126;5.596;2023-05-10T03:37:34;13.10;99.90
19522;DHT22;9905;52.126;5.596;2023-05-10T03:40:01;13.10;99.90
19522;DHT22;9905;52.126;5.596;2023-05-10T03:42:28;13.10;99.90
19522;DHT22;9905;52.126;5.596;2023-05-10T03:44:56;13.10;99.90
19522;DHT22;9905;52.126;5.596;2023-05-10T03:47:23;13.00;99.90
19522;DHT22;9905;52.126;5.596;2023-05-10T03:49:49;13.00;99.90
19522;DHT22;9905;52.126;5.596;2023-05-10T03:52:16;13.00;99.90
19522;DHT22;9905;52.126;5.596;2023-05-10T03:54:43;13.00;99.90
19522;DHT22;9905;52.126;5.596;2023-05-10T03:57:10;13.00;99.90
19522;DHT22;9905;52.126;5.596;2023-05-10T03:59:36;12.90;99.90
19522;DHT22;9905;52.126;5.596;2023-05-10T04:02:04;13.00;99.90
19522;DHT22;9905;52.126;5.596;2023-05-10T04:04:31;12.90;99.90
19522;DHT22;9905;52.126;5.596;2023-05-10T04:06:58;12.90;99.90
19522;DHT22;9905;52.126;5.596;2023-05-10T04:09:25;12.90;99.90
19522;DHT22;9905;52.126;5.596;2023-05-10T04:11:51;12.90;99.90
19522;DHT22;9905;52.126;5.596;2023-05-10T04:14:18;12.90;99.90
19522;DHT22;9905;52.126;5.596;2023-05-10T04:16:45;12.90;99.90
19522;DHT22;9905;52.126;5.596;2023-05-10T04:19:13;12.90;99.90
19522;DHT22;9905;52.126;5.596;2023-05-10T04:21:39;12.90;99.90
19522;DHT22;9905;52.126;5.596;2023-05-10T04:24:06;12.90;99.90
19522;DHT22;9905;52.126;5.596;2023-05-10T04:26:33;12.90;99.90
19522;DHT22;9905;52.126;5.596;2023-05-10T04:29:00;12.90;99.90
19522;DHT22;9905;52.126;5.596;2023-05-10T04:31:27;12.90;99.90
19522;DHT22;9905;52.126;5.596;2023-05-10T04:33:54;12.90;99.90
19522;DHT22;9905;52.126;5.596;2023-05-10T04:36:22;12.90;99.90
19522;DHT22;9905;52.126;5.596;2023-05-10T04:38:49;12.90;99.90
19522;DHT22;9905;52.126;5.596;2023-05-10T04:41:16;12.90;99.90
19522;DHT22;9905;52.126;5.596;2023-05-10T04:43:42;12.90;99.90
19522;DHT22;9905;52.126;5.596;2023-05-10T04:46:09;12.90;99.90
19522;DHT22;9905;52.126;5.596;2023-05-10T04:48:36;13.00;99.90
19522;DHT22;9905;52.126;5.596;2023-05-10T04:51:03;12.90;99.90
19522;DHT22;9905;52.126;5.596;2023-05-10T04:53:31;12.90;99.90
19522;DHT22;9905;52.126;5.596;2023-05-10T04:55:58;12.90;99.90
19522;DHT22;9905;52.126;5.596;2023-05-10T04:58:25;12.90;99.90
19522;DHT22;9905;52.126;5.596;2023-05-10T05:00:51;12.90;99.90
19522;DHT22;9905;52.126;5.596;2023-05-10T05:03:18;12.90;99.90
19522;DHT22;9905;52.126;5.596;2023-05-10T05:05:45;12.90;99.90
19522;DHT22;9905;52.126;5.596;2023-05-10T05:08:12;12.90;99.90
19522;DHT22;9905;52.126;5.596;2023-05-10T05:10:40;13.00;99.90
19522;DHT22;9905;52.126;5.596;2023-05-10T05:13:07;13.00;99.90
19522;DHT22;9905;52.126;5.596;2023-05-10T05:15:33;13.00;99.90
19522;DHT22;9905;52.126;5.596;2023-05-10T05:18:00;13.00;99.90
19522;DHT22;9905;52.126;5.596;2023-05-10T05:20:27;12.90;99.90
19522;DHT22;9905;52.126;5.596;2023-05-10T05:22:54;12.90;99.90
19522;DHT22;9905;52.126;5.596;2023-05-10T05:25:21;13.00;99.90
19522;DHT22;9905;52.126;5.596;2023-05-10T05:27:49;13.00;99.90
19522;DHT22;9905;52.126;5.596;2023-05-10T05:30:15;13.00;99.90
19522;DHT22;9905;52.126;5.596;2023-05-10T05:32:42;13.00;99.90
19522;DHT22;9905;52.126;5.596;2023-05-10T05:35:09;13.00;99.90
19522;DHT22;9905;52.126;5.596;2023-05-10T05:37:36;12.90;99.90
19522;DHT22;9905;52.126;5.596;2023-05-10T05:40:04;13.00;99.90
19522;DHT22;9905;52.126;5.596;2023-05-10T05:42:31;13.00;99.90
19522;DHT22;9905;52.126;5.596;2023-05-10T05:44:59;13.00;99.90
19522;DHT22;9905;52.126;5.596;2023-05-10T05:47:26;13.00;99.90
19522;DHT22;9905;52.126;5.596;2023-05-10T05:49:53;13.00;99.90
19522;DHT22;9905;52.126;5.596;2023-05-10T05:52:20;13.00;99.90
19522;DHT22;9905;52.126;5.596;2023-05-10T05:54:47;13.00;99.90
19522;DHT22;9905;52.126;5.596;2023-05-10T05:57:14;13.00;99.90
19522;DHT22;9905;52.126;5.596;2023-05-10T05:59:41;13.10;99.90
19522;DHT22;9905;52.126;5.596;2023-05-10T06:02:10;13.00;99.90
19522;DHT22;9905;52.126;5.596;2023-05-10T06:04:37;13.10;99.90
19522;DHT22;9905;52.126;5.596;2023-05-10T06:07:04;13.10;99.90
19522;DHT22;9905;52.126;5.596;2023-05-10T06:09:31;13.10;99.90
19522;DHT22;9905;52.126;5.596;2023-05-10T06:11:57;13.10;99.90
19522;DHT22;9905;52.126;5.596;2023-05-10T06:14:24;13.10;99.90
19522;DHT22;9905;52.126;5.596;2023-05-10T06:16:51;13.10;99.90
19522;DHT22;9905;52.126;5.596;2023-05-10T06:19:19;13.00;99.90
19522;DHT22;9905;52.126;5.596;2023-05-10T06:21:46;13.10;99.90
19522;DHT22;9905;52.126;5.596;2023-05-10T06:24:12;13.10;99.90
19522;DHT22;9905;52.126;5.596;2023-05-10T06:26:39;13.10;99.90
19522;DHT22;9905;52.126;5.596;2023-05-10T06:29:06;13.10;99.90
19522;DHT22;9905;52.126;5.596;2023-05-10T06:31:32;13.10;99.90
19522;DHT22;9905;52.126;5.596;2023-05-10T06:33:59;13.10;99.90
19522;DHT22;9905;52.126;5.596;2023-05-10T06:36:27;13.10;99.90
19522;DHT22;9905;52.126;5.596;2023-05-10T06:38:54;13.00;99.90
19522;DHT22;9905;52.126;5.596;2023-05-10T06:41:21;13.00;99.90
19522;DHT22;9905;52.126;5.596;2023-05-10T06:43:48;13.00;99.90
19522;DHT22;9905;52.126;5.596;2023-05-10T06:46:14;13.00;99.90
19522;DHT22;9905;52.126;5.596;2023-05-10T06:48:41;13.00;99.90
19522;DHT22;9905;52.126;5.596;2023-05-10T06:51:08;13.00;99.90
19522;DHT22;9905;52.126;5.596;2023-05-10T06:53:36;13.00;99.90
19522;DHT22;9905;52.126;5.596;2023-05-10T06:56:03;13.00;99.90
19522;DHT22;9905;52.126;5.596;2023-05-10T06:58:30;13.00;99.90
19522;DHT22;9905;52.126;5.596;2023-05-10T07:01:02;13.10;99.90
19522;DHT22;9905;52.126;5.596;2023-05-10T07:03:29;13.20;99.90
19522;DHT22;9905;52.126;5.596;2023-05-10T07:06:00;13.20;99.90
19522;DHT22;9905;52.126;5.596;2023-05-10T07:08:28;13.20;99.90
19522;DHT22;9905;52.126;5.596;2023-05-10T07:11:00;13.20;99.90
19522;DHT22;9905;52.126;5.596;2023-05-10T07:13:29;13.20;99.90
19522;DHT22;9905;52.126;5.596;2023-05-10T07:15:55;13.20;99.90
19522;DHT22;9905;52.126;5.596;2023-05-10T07:18:22;13.20;99.90
19522;DHT22;9905;52.126;5.596;2023-05-10T07:20:49;13.10;99.90
19522;DHT22;9905;52.126;5.596;2023-05-10T07:23:16;13.20;99.90
19522;DHT22;9905;52.126;5.596;2023-05-10T07:25:45;13.20;99.90
19522;DHT22;9905;52.126;5.596;2023-05-10T07:28:13;13.10;99.90
19522;DHT22;9905;52.126;5.596;2023-05-10T07:30:40;13.20;99.90
19522;DHT22;9905;52.126;5.596;2023-05-10T07:33:08;13.30;99.90
19522;DHT22;9905;52.126;5.596;2023-05-10T07:35:35;13.30;99.90
19522;DHT22;9905;52.126;5.596;2023-05-10T07:38:02;13.30;99.90
19522;DHT22;9905;52.126;5.596;2023-05-10T07:40:29;13.40;99.90
19522;DHT22;9905;52.126;5.596;2023-05-10T07:42:56;13.40;99.90
19522;DHT22;9905;52.126;5.596;2023-05-10T07:45:24;13.40;99.90
19522;DHT22;9905;52.126;5.596;2023-05-10T07:47:51;13.50;99.90
19522;DHT22;9905;52.126;5.596;2023-05-10T07:50:17;13.40;99.90
19522;DHT22;9905;52.126;5.596;2023-05-10T07:52:44;13.40;99.90
19522;DHT22;9905;52.126;5.596;2023-05-10T07:55:11;13.50;99.90
19522;DHT22;9905;52.126;5.596;2023-05-10T07:57:38;13.50;99.90
19522;DHT22;9905;52.126;5.596;2023-05-10T08:00:06;13.60;99.90
19522;DHT22;9905;52.126;5.596;2023-05-10T08:02:35;13.60;99.90
19522;DHT22;9905;52.126;5.596;2023-05-10T08:05:01;13.60;99.90
19522;DHT22;9905;52.126;5.596;2023-05-10T08:07:28;13.60;99.90
19522;DHT22;9905;52.126;5.596;2023-05-10T08:09:55;13.60;99.90
19522;DHT22;9905;52.126;5.596;2023-05-10T08:12:22;13.60;99.90
19522;DHT22;9905;52.126;5.596;2023-05-10T08:14:48;13.60;99.90
19522;DHT22;9905;52.126;5.596;2023-05-10T08:17:15;13.60;99.90
19522;DHT22;9905;52.126;5.596;2023-05-10T08:19:43;13.60;99.90
19522;DHT22;9905;52.126;5.596;2023-05-10T08:22:10;13.50;99.90
19522;DHT22;9905;52.126;5.596;2023-05-10T08:24:36;13.50;99.90
19522;DHT22;9905;52.126;5.596;2023-05-10T08:27:04;13.60;99.90
19522;DHT22;9905;52.126;5.596;2023-05-10T08:29:31;13.60;99.90
19522;DHT22;9905;52.126;5.596;2023-05-10T08:31:58;13.70;99.90
19522;DHT22;9905;52.126;5.596;2023-05-10T08:34:26;13.70;99.90
19522;DHT22;9905;52.126;5.596;2023-05-10T08:36:54;13.80;99.90
19522;DHT22;9905;52.126;5.596;2023-05-10T08:39:21;13.80;99.90
19522;DHT22;9905;52.126;5.596;2023-05-10T08:41:50;13.80;99.90
19522;DHT22;9905;52.126;5.596;2023-05-10T08:44:18;13.90;99.90
19522;DHT22;9905;52.126;5.596;2023-05-10T08:46:46;14.00;99.90
19522;DHT22;9905;52.126;5.596;2023-05-10T08:49:17;14.00;99.90
19522;DHT22;9905;52.126;5.596;2023-05-10T08:51:50;14.00;99.90
19522;DHT22;9905;52.126;5.596;2023-05-10T08:54:19;14.20;99.90
19522;DHT22;9905;52.126;5.596;2023-05-10T08:56:45;14.20;99.90
19522;DHT22;9905;52.126;5.596;2023-05-10T08:59:13;14.20;99.90
19522;DHT22;9905;52.126;5.596;2023-05-10T09:01:43;14.20;99.90
19522;DHT22;9905;52.126;5.596;2023-05-10T09:04:11;14.10;99.90
19522;DHT22;9905;52.126;5.596;2023-05-10T09:06:38;14.10;99.90
19522;DHT22;9905;52.126;5.596;2023-05-10T09:09:05;14.10;99.90
19522;DHT22;9905;52.126;5.596;2023-05-10T09:11:34;14.00;99.90
19522;DHT22;9905;52.126;5.596;2023-05-10T09:14:01;14.00;99.90
19522;DHT22;9905;52.126;5.596;2023-05-10T09:16:28;14.00;99.90
19522;DHT22;9905;52.126;5.596;2023-05-10T09:18:55;14.00;99.90
19522;DHT22;9905;52.126;5.596;2023-05-10T09:21:22;13.90;99.90
19522;DHT22;9905;52.126;5.596;2023-05-10T09:23:49;14.00;99.90
19522;DHT22;9905;52.126;5.596;2023-05-10T09:26:16;14.00;99.90
19522;DHT22;9905;52.126;5.596;2023-05-10T09:28:54;14.00;99.90
19522;DHT22;9905;52.126;5.596;2023-05-10T09:31:22;13.90;99.90
19522;DHT22;9905;52.126;5.596;2023-05-10T09:33:49;13.80;99.90
19522;DHT22;9905;52.126;5.596;2023-05-10T09:36:17;13.80;99.90
19522;DHT22;9905;52.126;5.596;2023-05-10T09:38:47;13.90;99.90
19522;DHT22;9905;52.126;5.596;2023-05-10T09:41:18;14.00;99.90
19522;DHT22;9905;52.126;5.596;2023-05-10T09:43:45;14.10;99.90
19522;DHT22;9905;52.126;5.596;2023-05-10T09:46:13;14.20;99.90
19522;DHT22;9905;52.126;5.596;2023-05-10T09:48:43;14.40;99.90
19522;DHT22;9905;52.126;5.596;2023-05-10T09:51:10;14.50;99.90
19522;DHT22;9905;52.126;5.596;2023-05-10T09:53:37;14.60;99.90
19522;DHT22;9905;52.126;5.596;2023-05-10T09:56:04;14.70;99.90
19522;DHT22;9905;52.126;5.596;2023-05-10T09:58:30;14.80;99.90
19522;DHT22;9905;52.126;5.596;2023-05-10T10:00:57;14.90;99.90
19522;DHT22;9905;52.126;5.596;2023-05-10T10:03:25;15.00;99.90
19522;DHT22;9905;52.126;5.596;2023-05-10T10:05:52;15.10;99.90
19522;DHT22;9905;52.126;5.596;2023-05-10T10:08:21;15.30;99.90
19522;DHT22;9905;52.126;5.596;2023-05-10T10:10:49;15.40;99.90
19522;DHT22;9905;52.126;5.596;2023-05-10T10:13:16;15.60;99.90
19522;DHT22;9905;52.126;5.596;2023-05-10T10:15:43;15.70;99.90
19522;DHT22;9905;52.126;5.596;2023-05-10T10:18:13;15.90;99.90
19522;DHT22;9905;52.126;5.596;2023-05-10T10:20:42;16.00;99.90
19522;DHT22;9905;52.126;5.596;2023-05-10T10:23:09;16.20;99.90
19522;DHT22;9905;52.126;5.596;2023-05-10T10:25:35;16.30;99.90
19522;DHT22;9905;52.126;5.596;2023-05-10T10:28:12;16.30;99.90
19522;DHT22;9905;52.126;5.596;2023-05-10T10:30:45;16.40;99.90
19522;DHT22;9905;52.126;5.596;2023-05-10T10:33:33;16.30;99.90
19522;DHT22;9905;52.126;5.596;2023-05-10T10:36:05;16.30;99.90
19522;DHT22;9905;52.126;5.596;2023-05-10T10:38:55;16.40;99.90
19522;DHT22;9905;52.126;5.596;2023-05-10T10:41:29;16.40;99.90
19522;DHT22;9905;52.126;5.596;2023-05-10T10:44:36;16.50;99.90
19522;DHT22;9905;52.126;5.596;2023-05-10T10:47:09;16.40;99.90
19522;DHT22;9905;52.126;5.596;2023-05-10T10:49:42;16.40;99.90
19522;DHT22;9905;52.126;5.596;2023-05-10T10:52:21;16.30;99.90
19522;DHT22;9905;52.126;5.596;2023-05-10T10:54:52;16.30;99.90
19522;DHT22;9905;52.126;5.596;2023-05-10T10:57:20;16.30;99.90
19522;DHT22;9905;52.126;5.596;2023-05-10T10:59:48;16.20;99.90
19522;DHT22;9905;52.126;5.596;2023-05-10T11:02:45;16.20;99.90
19522;DHT22;9905;52.126;5.596;2023-05-10T11:05:44;16.30;99.90
19522;DHT22;9905;52.126;5.596;2023-05-10T11:08:15;16.30;99.90
19522;DHT22;9905;52.126;5.596;2023-05-10T11:11:06;16.30;99.90
19522;DHT22;9905;52.126;5.596;2023-05-10T11:13:37;16.40;99.90
19522;DHT22;9905;52.126;5.596;2023-05-10T11:16:15;16.50;99.90
19522;DHT22;9905;52.126;5.596;2023-05-10T11:19:02;16.60;99.90
19522;DHT22;9905;52.126;5.596;2023-05-10T11:21:29;16.50;99.90
19522;DHT22;9905;52.126;5.596;2023-05-10T11:23:58;16.50;99.90
19522;DHT22;9905;52.126;5.596;2023-05-10T11:26:30;16.40;99.90
19522;DHT22;9905;52.126;5.596;2023-05-10T11:28:56;16.50;99.90
19522;DHT22;9905;52.126;5.596;2023-05-10T11:31:24;16.60;99.90
19522;DHT22;9905;52.126;5.596;2023-05-10T11:33:53;16.60;99.90
19522;DHT22;9905;52.126;5.596;2023-05-10T11:36:23;16.70;99.90
19522;DHT22;9905;52.126;5.596;2023-05-10T11:38:49;16.70;99.90
19522;DHT22;9905;52.126;5.596;2023-05-10T11:41:19;16.80;99.90
19522;DHT22;9905;52.126;5.596;2023-05-10T11:43:49;16.80;99.90
19522;DHT22;9905;52.126;5.596;2023-05-10T11:46:17;16.90;99.90
19522;DHT22;9905;52.126;5.596;2023-05-10T11:48:45;16.90;99.90
19522;DHT22;9905;52.126;5.596;2023-05-10T11:51:13;17.00;99.90
19522;DHT22;9905;52.126;5.596;2023-05-10T11:53:40;17.00;99.90
19522;DHT22;9905;52.126;5.596;2023-05-10T11:56:08;17.10;99.90
19522;DHT22;9905;52.126;5.596;2023-05-10T11:58:37;17.20;99.90
19522;DHT22;9905;52.126;5.596;2023-05-10T12:01:05;17.20;99.90
19522;DHT22;9905;52.126;5.596;2023-05-10T12:03:33;17.10;99.90
19522;DHT22;9905;52.126;5.596;2023-05-10T12:06:01;17.10;99.90
19522;DHT22;9905;52.126;5.596;2023-05-10T12:08:28;17.10;99.90
19522;DHT22;9905;52.126;5.596;2023-05-10T12:11:04;17.10;99.90
19522;DHT22;9905;52.126;5.596;2023-05-10T12:13:31;17.10;99.90
19522;DHT22;9905;52.126;5.596;2023-05-10T12:15:59;17.10;99.90
19522;DHT22;9905;52.126;5.596;2023-05-10T12:18:40;17.20;99.90
19522;DHT22;9905;52.126;5.596;2023-05-10T12:21:06;17.40;99.90
19522;DHT22;9905;52.126;5.596;2023-05-10T12:23:33;17.50;99.90
19522;DHT22;9905;52.126;5.596;2023-05-10T12:26:02;17.60;99.90
19522;DHT22;9905;52.126;5.596;2023-05-10T12:28:30;17.70;99.90
19522;DHT22;9905;52.126;5.596;2023-05-10T12:30:59;17.80;99.90
19522;DHT22;9905;52.126;5.596;2023-05-10T12:33:26;17.90;99.90
19522;DHT22;9905;52.126;5.596;2023-05-10T12:35:54;17.80;99.90
19522;DHT22;9905;52.126;5.596;2023-05-10T12:38:29;17.80;99.90
19522;DHT22;9905;52.126;5.596;2023-05-10T12:40:57;17.90;99.90
19522;DHT22;9905;52.126;5.596;2023-05-10T12:43:24;18.00;99.90
19522;DHT22;9905;52.126;5.596;2023-05-10T12:45:50;18.00;99.90
19522;DHT22;9905;52.126;5.596;2023-05-10T12:48:19;18.10;99.90
19522;DHT22;9905;52.126;5.596;2023-05-10T12:50:46;18.10;99.90
19522;DHT22;9905;52.126;5.596;2023-05-10T12:53:13;18.20;99.90
19522;DHT22;9905;52.126;5.596;2023-05-10T12:55:40;18.30;99.90
19522;DHT22;9905;52.126;5.596;2023-05-10T12:58:07;18.50;99.90
19522;DHT22;9905;52.126;5.596;2023-05-10T13:00:34;18.50;99.90
19522;DHT22;9905;52.126;5.596;2023-05-10T13:03:03;18.60;99.90
19522;DHT22;9905;52.126;5.596;2023-05-10T13:05:32;18.60;99.90
19522;DHT22;9905;52.126;5.596;2023-05-10T13:07:59;18.70;99.90
19522;DHT22;9905;52.126;5.596;2023-05-10T13:10:25;18.70;99.90
19522;DHT22;9905;52.126;5.596;2023-05-10T13:12:52;18.80;99.90
19522;DHT22;9905;52.126;5.596;2023-05-10T13:15:19;18.80;99.90
19522;DHT22;9905;52.126;5.596;2023-05-10T13:17:46;18.90;99.90
19522;DHT22;9905;52.126;5.596;2023-05-10T13:20:12;19.00;99.90
19522;DHT22;9905;52.126;5.596;2023-05-10T13:22:41;18.90;99.90
19522;DHT22;9905;52.126;5.596;2023-05-10T13:25:08;19.00;99.90
19522;DHT22;9905;52.126;5.596;2023-05-10T13:27:36;18.90;99.90
19522;DHT22;9905;52.126;5.596;2023-05-10T13:30:03;18.90;99.90
19522;DHT22;9905;52.126;5.596;2023-05-10T13:32:30;18.80;99.90
19522;DHT22;9905;52.126;5.596;2023-05-10T13:34:57;18.70;99.90
19522;DHT22;9905;52.126;5.596;2023-05-10T13:37:23;18.70;99.90
19522;DHT22;9905;52.126;5.596;2023-05-10T13:39:51;18.60;99.90
19522;DHT22;9905;52.126;5.596;2023-05-10T13:42:18;18.40;99.90
19522;DHT22;9905;52.126;5.596;2023-05-10T13:44:45;18.30;99.90
19522;DHT22;9905;52.126;5.596;2023-05-10T13:47:11;18.30;99.90
19522;DHT22;9905;52.126;5.596;2023-05-10T13:49:38;18.30;99.90
19522;DHT22;9905;52.126;5.596;2023-05-10T13:52:05;18.10;99.90
19522;DHT22;9905;52.126;5.596;2023-05-10T13:54:32;17.70;99.90
19522;DHT22;9905;52.126;5.596;2023-05-10T13:57:00;17.50;99.90
19522;DHT22;9905;52.126;5.596;2023-05-10T13:59:28;17.20;99.90
19522;DHT22;9905;52.126;5.596;2023-05-10T14:01:56;17.00;99.90
19522;DHT22;9905;52.126;5.596;2023-05-10T14:04:23;16.90;99.90
19522;DHT22;9905;52.126;5.596;2023-05-10T14:06:50;16.80;99.90
19522;DHT22;9905;52.126;5.596;2023-05-10T14:09:18;16.70;99.90
19522;DHT22;9905;52.126;5.596;2023-05-10T14:11:45;16.50;99.90
19522;DHT22;9905;52.126;5.596;2023-05-10T14:14:13;16.40;99.90
19522;DHT22;9905;52.126;5.596;2023-05-10T14:16:42;16.00;99.90
19522;DHT22;9905;52.126;5.596;2023-05-10T14:19:09;15.90;99.90
19522;DHT22;9905;52.126;5.596;2023-05-10T14:21:36;15.80;99.90
19522;DHT22;9905;52.126;5.596;2023-05-10T14:24:03;15.60;99.90
19522;DHT22;9905;52.126;5.596;2023-05-10T14:26:30;15.40;99.90
19522;DHT22;9905;52.126;5.596;2023-05-10T14:28:57;15.30;99.90
19522;DHT22;9905;52.126;5.596;2023-05-10T14:31:25;15.20;99.90
19522;DHT22;9905;52.126;5.596;2023-05-10T14:33:52;15.10;99.90
19522;DHT22;9905;52.126;5.596;2023-05-10T14:36:19;15.00;99.90
19522;DHT22;9905;52.126;5.596;2023-05-10T14:38:46;14.90;99.90
19522;DHT22;9905;52.126;5.596;2023-05-10T14:41:12;15.00;99.90
19522;DHT22;9905;52.126;5.596;2023-05-10T14:43:40;14.90;99.90
19522;DHT22;9905;52.126;5.596;2023-05-10T14:46:07;15.00;99.90
19522;DHT22;9905;52.126;5.596;2023-05-10T14:48:35;14.90;99.90
19522;DHT22;9905;52.126;5.596;2023-05-10T14:51:02;14.80;99.90
19522;DHT22;9905;52.126;5.596;2023-05-10T14:53:29;14.80;99.90
19522;DHT22;9905;52.126;5.596;2023-05-10T14:55:56;14.70;99.90
19522;DHT22;9905;52.126;5.596;2023-05-10T14:58:25;14.70;99.90
19522;DHT22;9905;52.126;5.596;2023-05-10T15:00:52;14.60;99.90
19522;DHT22;9905;52.126;5.596;2023-05-10T15:03:19;14.60;99.90
19522;DHT22;9905;52.126;5.596;2023-05-10T15:05:47;14.60;99.90
19522;DHT22;9905;52.126;5.596;2023-05-10T15:08:13;14.50;99.90
19522;DHT22;9905;52.126;5.596;2023-05-10T15:10:40;14.40;99.90
19522;DHT22;9905;52.126;5.596;2023-05-10T15:13:07;14.40;99.90
19522;DHT22;9905;52.126;5.596;2023-05-10T15:15:34;14.40;99.90
19522;DHT22;9905;52.126;5.596;2023-05-10T15:18:00;14.40;99.90
19522;DHT22;9905;52.126;5.596;2023-05-10T15:20:27;14.40;99.90
19522;DHT22;9905;52.126;5.596;2023-05-10T15:22:55;14.50;99.90
19522;DHT22;9905;52.126;5.596;2023-05-10T15:25:22;14.40;99.90
19522;DHT22;9905;52.126;5.596;2023-05-10T15:27:49;14.40;99.90
19522;DHT22;9905;52.126;5.596;2023-05-10T15:30:15;14.40;99.90
19522;DHT22;9905;52.126;5.596;2023-05-10T15:32:42;14.40;99.90
19522;DHT22;9905;52.126;5.596;2023-05-10T15:35:09;14.40;99.90
19522;DHT22;9905;52.126;5.596;2023-05-10T15:37:36;14.40;99.90
19522;DHT22;9905;52.126;5.596;2023-05-10T15:40:05;14.40;99.90
19522;DHT22;9905;52.126;5.596;2023-05-10T15:42:32;14.50;99.90
19522;DHT22;9905;52.126;5.596;2023-05-10T15:44:59;14.50;99.90
19522;DHT22;9905;52.126;5.596;2023-05-10T15:47:26;14.50;99.90
19522;DHT22;9905;52.126;5.596;2023-05-10T15:49:53;14.60;99.90
19522;DHT22;9905;52.126;5.596;2023-05-10T15:52:20;14.70;99.90
19522;DHT22;9905;52.126;5.596;2023-05-10T15:54:47;14.80;99.90
19522;DHT22;9905;52.126;5.596;2023-05-10T15:57:15;14.80;99.90